Etusivu
METAR-TAF:

METAR-TAF

Lentoasemat :

Grinnell, Iowa, Yhdysvallat

Leveyspiiri: 41-42-35N, Pituuspiiri: 092-44-09W, korkeus merenpinnasta: 307 m

Tämänhetkinen sää

Tämä raportti tehtiin 35 minuuttia sitten, kello 09.35 UTC
Tuuli 19 kn lännestä/luoteesta puuskistuen 23 kn:hen
Lämpötila -2°C
Kosteus 86%
Ilmanpaine 1020 hPa
Näkyvyys: 16.1 km
Hajonneita pilviä 1800 ft:n korkeudessa

METAR: KGGI 180935Z AUTO 30019G23KT 10SM BKN018 M02/M04 A3011 RMK AO2 T10251045

Aika: 04:10 (10:10 UTC)


TAF: puuttuu

Säähavainnot ja -ennusteet yli 4000 lentoasemalta (METAR- ja TAF-raportit).

Käytössä olevat sääasemat on merkitty karttaan keltaisilla ja punaisilla pisteillä.

Aseta hiiri pisteen päälle nähdäksesi sääaseman nimen.

Klikkaa sitten nähdäksesi säähavainnot ja -ennusteet.

Kartan vaihtaminen: klikkaa mustalla rastilla varustettuja vihreitä pisteitä, niin voit zoomata sisään; viivalla varustettua vihreää pistettä, niin voit zoomata ulos tai vihreitä nuolia, niin pääset viereisille kartoille.


METAR-TAF: